createdAt,value
2019-06-01T00:01:31.977Z,90.20
2019-06-01T00:04:04.039Z,90.10
2019-06-01T00:06:35.843Z,90.40
2019-06-01T00:09:08.565Z,90.80
2019-06-01T00:11:41.242Z,90.90
2019-06-01T00:14:13.581Z,91.00
2019-06-01T00:16:46.016Z,91.30
2019-06-01T00:19:18.185Z,91.40
2019-06-01T00:21:50.024Z,91.70
2019-06-01T00:24:21.898Z,92.10
2019-06-01T00:26:53.574Z,92.20
2019-06-01T00:29:25.626Z,92.50
2019-06-01T00:31:57.725Z,92.70
2019-06-01T00:34:29.568Z,93.10
2019-06-01T00:37:01.260Z,93.50
2019-06-01T00:39:32.992Z,93.70
2019-06-01T00:42:04.826Z,93.80
2019-06-01T00:44:36.432Z,93.80
2019-06-01T00:47:08.102Z,94.10
2019-06-01T00:49:39.726Z,94.40
2019-06-01T00:52:11.683Z,94.80
2019-06-01T00:54:43.402Z,94.90
2019-06-01T00:57:15.120Z,95.00
2019-06-01T00:59:50.062Z,95.40
2019-06-01T01:02:21.988Z,96.10
2019-06-01T01:05:13.939Z,95.80
2019-06-01T01:07:46.450Z,96.10
2019-06-01T01:10:19.054Z,96.60
2019-06-01T01:13:05.766Z,96.80
2019-06-01T01:15:38.611Z,97.10
2019-06-01T01:18:10.438Z,97.40
2019-06-01T01:20:42.212Z,97.60
2019-06-01T01:23:14.019Z,97.70
2019-06-01T01:25:46.369Z,98.40
2019-06-01T01:28:18.308Z,98.20
2019-06-01T01:31:02.982Z,98.50
2019-06-01T01:33:23.617Z,98.80
2019-06-01T01:35:55.831Z,98.90
2019-06-01T01:38:27.711Z,99.00
2019-06-01T01:40:59.582Z,99.20
2019-06-01T01:43:31.299Z,99.30
2019-06-01T01:46:03.450Z,99.40
2019-06-01T01:48:35.249Z,99.50
2019-06-01T01:51:06.972Z,99.60
2019-06-01T01:53:38.887Z,99.90
2019-06-01T01:56:10.572Z,99.90
2019-06-01T01:58:42.304Z,99.90
2019-06-01T02:01:22.167Z,99.90
2019-06-01T02:03:47.331Z,99.90
2019-06-01T02:06:18.633Z,99.90
2019-06-01T02:08:51.026Z,99.90
2019-06-01T02:11:23.054Z,99.90
2019-06-01T02:13:55.910Z,99.90
2019-06-01T02:16:27.532Z,99.90
2019-06-01T02:19:00.443Z,99.90
2019-06-01T02:21:32.301Z,99.90
2019-06-01T02:24:03.987Z,99.90
2019-06-01T02:26:35.971Z,99.90
2019-06-01T02:29:07.899Z,99.90
2019-06-01T02:31:42.175Z,99.90
2019-06-01T02:34:13.123Z,99.90
2019-06-01T02:36:44.829Z,99.90
2019-06-01T02:39:16.603Z,99.90
2019-06-01T02:41:48.505Z,99.90
2019-06-01T02:44:20.348Z,99.90
2019-06-01T02:46:52.197Z,99.90
2019-06-01T02:49:23.887Z,99.90
2019-06-01T02:51:55.564Z,99.90
2019-06-01T02:54:27.229Z,99.90
2019-06-01T02:57:00.137Z,99.90
2019-06-01T02:59:31.948Z,99.90
2019-06-01T03:02:10.130Z,99.90
2019-06-01T03:04:37.258Z,99.90
2019-06-01T03:07:10.176Z,99.90
2019-06-01T03:09:42.568Z,99.90
2019-06-01T03:12:15.739Z,99.90
2019-06-01T03:14:50.257Z,99.90
2019-06-01T03:17:24.628Z,99.90
2019-06-01T03:19:59.629Z,99.90
2019-06-01T03:22:32.938Z,99.90
2019-06-01T03:25:06.679Z,99.90
2019-06-01T03:27:40.266Z,99.90
2019-06-01T03:30:15.412Z,99.90
2019-06-01T03:32:45.828Z,99.90
2019-06-01T03:35:18.052Z,99.90
2019-06-01T03:37:49.946Z,99.90
2019-06-01T03:40:23.911Z,99.90
2019-06-01T03:42:54.919Z,99.90
2019-06-01T03:45:26.752Z,99.90
2019-06-01T03:47:58.618Z,99.90
2019-06-01T03:50:30.428Z,99.90
2019-06-01T03:53:02.104Z,99.90
2019-06-01T03:55:33.641Z,99.90
2019-06-01T03:58:05.420Z,99.60
2019-06-01T04:00:37.611Z,99.50
2019-06-01T04:03:09.330Z,99.30
2019-06-01T04:05:41.212Z,99.00
2019-06-01T04:08:12.951Z,98.30
2019-06-01T04:10:45.014Z,98.00
2019-06-01T04:13:17.358Z,97.60
2019-06-01T04:15:49.320Z,97.00
2019-06-01T04:18:21.028Z,96.60
2019-06-01T04:20:53.011Z,96.50
2019-06-01T04:23:25.213Z,96.20
2019-06-01T04:25:56.952Z,95.90
2019-06-01T04:28:28.676Z,95.50
2019-06-01T04:31:00.378Z,95.00
2019-06-01T04:33:32.513Z,94.30
2019-06-01T04:36:04.874Z,93.60
2019-06-01T04:38:36.597Z,93.20
2019-06-01T04:41:09.721Z,93.10
2019-06-01T04:43:41.954Z,92.60
2019-06-01T04:46:14.469Z,92.10
2019-06-01T04:48:47.350Z,91.90
2019-06-01T04:51:19.926Z,91.50
2019-06-01T04:53:51.643Z,91.10
2019-06-01T04:56:23.387Z,90.80
2019-06-01T04:58:55.382Z,90.80
2019-06-01T05:01:27.171Z,90.70
2019-06-01T05:03:59.012Z,90.30
2019-06-01T05:06:31.129Z,90.10
2019-06-01T05:09:03.207Z,90.00
2019-06-01T05:11:35.134Z,90.00
2019-06-01T05:14:07.552Z,89.40
2019-06-01T05:16:40.066Z,88.50
2019-06-01T05:19:12.253Z,88.10
2019-06-01T05:21:43.936Z,87.70
2019-06-01T05:24:17.095Z,87.20
2019-06-01T05:26:49.098Z,86.20
2019-06-01T05:29:21.158Z,85.10
2019-06-01T05:31:53.022Z,84.90
2019-06-01T05:34:25.133Z,83.00
2019-06-01T05:36:58.093Z,82.80
2019-06-01T05:39:29.933Z,79.70
2019-06-01T05:42:01.465Z,75.30
2019-06-01T05:44:33.428Z,71.80
2019-06-01T05:47:04.974Z,69.60
2019-06-01T05:49:36.792Z,65.90
2019-06-01T05:52:10.307Z,63.00
2019-06-01T05:54:42.367Z,60.60
2019-06-01T05:57:14.700Z,59.60
2019-06-01T05:59:46.846Z,59.10
2019-06-01T06:02:19.475Z,59.40
2019-06-01T06:04:53.997Z,59.60
2019-06-01T06:07:25.171Z,60.30
2019-06-01T06:09:57.518Z,61.20
2019-06-01T06:12:29.367Z,63.40
2019-06-01T06:15:01.355Z,66.20
2019-06-01T06:17:33.117Z,67.50
2019-06-01T06:20:05.860Z,68.60
2019-06-01T06:22:41.054Z,70.20
2019-06-01T06:25:13.981Z,72.10
2019-06-01T06:27:45.188Z,72.60
2019-06-01T06:30:18.987Z,71.10
2019-06-01T06:32:50.878Z,68.30
2019-06-01T06:35:23.629Z,66.30
2019-06-01T06:37:56.017Z,65.80
2019-06-01T06:40:27.852Z,66.80
2019-06-01T06:42:59.659Z,68.80
2019-06-01T06:45:31.352Z,70.70
2019-06-01T06:48:03.223Z,71.70
2019-06-01T06:50:35.126Z,70.60
2019-06-01T06:53:06.737Z,70.00
2019-06-01T06:55:38.494Z,68.30
2019-06-01T06:58:10.376Z,63.10
2019-06-01T07:00:42.429Z,61.50
2019-06-01T07:03:14.279Z,59.30
2019-06-01T07:05:46.183Z,57.90
2019-06-01T07:08:18.328Z,55.00
2019-06-01T07:10:50.369Z,53.20
2019-06-01T07:13:23.369Z,54.00
2019-06-01T07:15:55.588Z,52.50
2019-06-01T07:18:27.861Z,50.50
2019-06-01T07:21:00.191Z,50.70
2019-06-01T07:23:32.242Z,51.40
2019-06-01T07:26:04.432Z,51.60
2019-06-01T07:28:36.422Z,52.00
2019-06-01T07:31:08.579Z,51.50
2019-06-01T07:33:40.286Z,52.10
2019-06-01T07:36:12.180Z,52.40
2019-06-01T07:38:44.225Z,50.70
2019-06-01T07:41:16.193Z,48.50
2019-06-01T07:43:48.047Z,46.00
2019-06-01T07:46:20.784Z,45.50
2019-06-01T07:48:52.596Z,45.30
2019-06-01T07:51:25.182Z,44.60
2019-06-01T07:53:56.808Z,42.30
2019-06-01T07:56:28.792Z,40.60
2019-06-01T07:59:00.808Z,39.60
2019-06-01T08:01:32.967Z,39.30
2019-06-01T08:04:05.138Z,39.00
2019-06-01T08:06:42.179Z,38.60
2019-06-01T08:09:10.849Z,38.60
2019-06-01T08:11:42.681Z,40.50
2019-06-01T08:14:14.648Z,43.40
2019-06-01T08:16:46.429Z,46.60
2019-06-01T08:19:21.966Z,49.00
2019-06-01T08:21:54.107Z,50.60
2019-06-01T08:24:26.325Z,51.50
2019-06-01T08:26:58.250Z,52.00
2019-06-01T08:29:30.730Z,53.20
2019-06-01T08:32:03.200Z,53.40
2019-06-01T08:34:35.448Z,53.20
2019-06-01T08:37:07.347Z,53.40
2019-06-01T08:39:39.469Z,52.50
2019-06-01T08:42:11.526Z,49.60
2019-06-01T08:44:43.347Z,46.60
2019-06-01T08:47:15.311Z,44.40
2019-06-01T08:49:47.263Z,43.30
2019-06-01T08:52:19.436Z,41.50
2019-06-01T08:54:51.499Z,39.70
2019-06-01T08:57:24.175Z,38.50
2019-06-01T08:59:56.342Z,38.00
2019-06-01T09:02:29.051Z,37.90
2019-06-01T09:05:00.957Z,37.70
2019-06-01T09:07:33.294Z,37.80
2019-06-01T09:10:05.614Z,37.40
2019-06-01T09:12:37.618Z,36.50
2019-06-01T09:15:12.263Z,37.20
2019-06-01T09:17:44.501Z,38.90
2019-06-01T09:20:16.279Z,40.80
2019-06-01T09:22:48.501Z,41.00
2019-06-01T09:25:20.572Z,39.30
2019-06-01T09:27:52.558Z,37.40
2019-06-01T09:30:25.801Z,36.70
2019-06-01T09:32:58.094Z,35.90
2019-06-01T09:35:51.279Z,35.10
2019-06-01T09:38:03.920Z,34.70
2019-06-01T09:40:37.761Z,35.10
2019-06-01T09:43:09.690Z,35.50
2019-06-01T09:45:41.792Z,36.60
2019-06-01T09:48:13.996Z,38.00
2019-06-01T09:50:45.958Z,39.60
2019-06-01T09:53:18.139Z,41.00
2019-06-01T09:55:50.544Z,42.40
2019-06-01T09:58:22.360Z,43.30
2019-06-01T10:00:54.529Z,43.30
2019-06-01T10:03:28.135Z,43.60
2019-06-01T10:06:02.281Z,43.00
2019-06-01T10:08:34.485Z,43.60
2019-06-01T10:11:06.857Z,44.00
2019-06-01T10:13:39.056Z,44.30
2019-06-01T10:16:10.982Z,43.80
2019-06-01T10:18:43.198Z,44.20
2019-06-01T10:21:15.662Z,44.40
2019-06-01T10:23:49.520Z,44.20
2019-06-01T10:26:21.530Z,44.10
2019-06-01T10:28:54.194Z,44.30
2019-06-01T10:31:26.277Z,44.30
2019-06-01T10:33:58.351Z,44.40
2019-06-01T10:36:30.286Z,44.30
2019-06-01T10:39:03.188Z,43.50
2019-06-01T10:41:37.343Z,43.90
2019-06-01T10:44:09.489Z,44.40
2019-06-01T10:46:43.510Z,44.70
2019-06-01T10:49:16.210Z,44.70
2019-06-01T10:51:48.076Z,45.10
2019-06-01T10:54:20.599Z,44.80
2019-06-01T10:56:52.542Z,43.80
2019-06-01T10:59:24.545Z,43.80
2019-06-01T11:01:56.679Z,44.00
2019-06-01T11:04:28.813Z,44.10
2019-06-01T11:07:01.131Z,44.60
2019-06-01T11:09:33.246Z,44.90
2019-06-01T11:12:05.124Z,45.00
2019-06-01T11:14:37.267Z,45.30
2019-06-01T11:17:09.378Z,45.30
2019-06-01T11:19:42.084Z,45.20
2019-06-01T11:22:14.226Z,44.60
2019-06-01T11:24:46.504Z,44.90
2019-06-01T11:27:18.455Z,44.10
2019-06-01T11:29:51.863Z,44.20
2019-06-01T11:32:24.262Z,43.90
2019-06-01T11:34:56.279Z,43.70
2019-06-01T11:37:28.334Z,43.80
2019-06-01T11:40:00.294Z,44.00
2019-06-01T11:42:32.450Z,44.20
2019-06-01T11:45:05.292Z,44.50
2019-06-01T11:47:37.304Z,44.50
2019-06-01T11:50:09.348Z,44.40
2019-06-01T11:52:43.184Z,44.30
2019-06-01T11:55:15.332Z,44.20
2019-06-01T11:57:47.149Z,44.20
2019-06-01T12:00:20.273Z,44.10
2019-06-01T12:02:52.766Z,43.90
2019-06-01T12:05:23.835Z,43.50
2019-06-01T12:07:57.400Z,43.60
2019-06-01T12:10:29.349Z,43.60
2019-06-01T12:13:01.162Z,43.70
2019-06-01T12:15:33.312Z,44.60
2019-06-01T12:18:05.521Z,44.20
2019-06-01T12:20:38.645Z,44.40
2019-06-01T12:23:11.360Z,44.50
2019-06-01T12:25:44.357Z,44.50
2019-06-01T12:28:17.001Z,44.80
2019-06-01T12:30:49.617Z,45.10
2019-06-01T12:33:22.612Z,45.50
2019-06-01T12:35:55.207Z,46.10
2019-06-01T12:38:27.269Z,46.60
2019-06-01T12:40:59.994Z,46.10
2019-06-01T12:43:32.312Z,46.10
2019-06-01T12:46:07.628Z,45.90
2019-06-01T12:48:39.795Z,45.50
2019-06-01T12:51:12.496Z,45.10
2019-06-01T12:53:46.565Z,44.90
2019-06-01T12:56:19.516Z,44.60
2019-06-01T12:58:52.628Z,44.40
2019-06-01T13:01:25.298Z,44.40
2019-06-01T13:03:58.458Z,44.50
2019-06-01T13:06:31.713Z,44.50
2019-06-01T13:09:07.014Z,44.30
2019-06-01T13:11:39.162Z,44.30
2019-06-01T13:14:12.087Z,44.20
2019-06-01T13:16:50.684Z,43.90
2019-06-01T13:19:18.707Z,44.00
2019-06-01T13:21:51.689Z,44.40
2019-06-01T13:24:24.181Z,44.70
2019-06-01T13:26:56.128Z,45.00
2019-06-01T13:29:28.088Z,45.50
2019-06-01T13:32:00.161Z,46.00
2019-06-01T13:34:34.142Z,46.20
2019-06-01T13:37:07.074Z,46.30
2019-06-01T13:39:39.359Z,46.30
2019-06-01T13:42:11.355Z,46.10
2019-06-01T13:44:43.661Z,45.60
2019-06-01T13:47:15.656Z,45.60
2019-06-01T13:49:48.431Z,45.90
2019-06-01T13:52:21.222Z,46.10
2019-06-01T13:54:54.607Z,46.40
2019-06-01T13:57:26.950Z,46.00
2019-06-01T13:59:59.384Z,46.20
2019-06-01T14:02:31.334Z,46.10
2019-06-01T14:05:03.602Z,46.10
2019-06-01T14:07:35.847Z,45.90
2019-06-01T14:10:08.298Z,45.70
2019-06-01T14:12:41.091Z,45.80
2019-06-01T14:15:13.559Z,46.30
2019-06-01T14:17:46.052Z,46.80
2019-06-01T14:20:19.106Z,46.60
2019-06-01T14:22:51.956Z,46.10
2019-06-01T14:25:24.112Z,46.50
2019-06-01T14:27:56.550Z,46.40
2019-06-01T14:30:28.596Z,46.50
2019-06-01T14:33:00.770Z,46.70
2019-06-01T14:35:35.715Z,46.70
2019-06-01T14:38:06.635Z,46.80
2019-06-01T14:40:41.371Z,47.00
2019-06-01T14:43:13.181Z,47.20
2019-06-01T14:45:47.167Z,46.90
2019-06-01T14:48:19.410Z,46.70
2019-06-01T14:50:51.685Z,46.50
2019-06-01T14:53:23.814Z,46.70
2019-06-01T14:55:55.968Z,47.10
2019-06-01T14:58:27.840Z,47.50
2019-06-01T15:00:59.731Z,47.70
2019-06-01T15:03:31.736Z,47.90
2019-06-01T15:06:03.703Z,48.20
2019-06-01T15:08:35.598Z,48.50
2019-06-01T15:11:07.639Z,48.60
2019-06-01T15:13:39.682Z,48.50
2019-06-01T15:16:11.280Z,48.30
2019-06-01T15:18:43.236Z,48.00
2019-06-01T15:21:15.401Z,47.90
2019-06-01T15:23:47.462Z,47.80
2019-06-01T15:26:19.376Z,47.60
2019-06-01T15:28:53.178Z,47.30
2019-06-01T15:31:25.144Z,46.60
2019-06-01T15:33:57.380Z,46.50
2019-06-01T15:36:29.437Z,46.50
2019-06-01T15:39:02.244Z,47.00
2019-06-01T15:41:34.420Z,47.30
2019-06-01T15:44:06.376Z,47.20
2019-06-01T15:46:38.777Z,47.60
2019-06-01T15:49:10.719Z,47.10
2019-06-01T15:51:42.621Z,46.50
2019-06-01T15:54:14.643Z,46.10
2019-06-01T15:56:46.644Z,45.70
2019-06-01T15:59:18.476Z,45.50
2019-06-01T16:01:50.617Z,45.80
2019-06-01T16:04:22.648Z,46.00
2019-06-01T16:06:55.038Z,46.40
2019-06-01T16:09:41.597Z,46.70
2019-06-01T16:12:01.599Z,47.20
2019-06-01T16:14:33.842Z,47.60
2019-06-01T16:17:06.397Z,47.90
2019-06-01T16:19:38.229Z,48.10
2019-06-01T16:22:10.196Z,48.40
2019-06-01T16:24:42.704Z,48.70
2019-06-01T16:27:14.938Z,48.90
2019-06-01T16:29:46.848Z,48.90
2019-06-01T16:32:18.783Z,48.70
2019-06-01T16:34:50.860Z,48.30
2019-06-01T16:37:22.905Z,48.00
2019-06-01T16:40:01.639Z,48.10
2019-06-01T16:42:29.040Z,48.10
2019-06-01T16:45:03.627Z,48.40
2019-06-01T16:47:35.666Z,48.70
2019-06-01T16:50:09.083Z,49.10
2019-06-01T16:52:41.165Z,49.10
2019-06-01T16:55:13.618Z,49.30
2019-06-01T16:57:45.559Z,49.40
2019-06-01T17:00:18.100Z,49.30
2019-06-01T17:02:50.183Z,49.30
2019-06-01T17:05:22.348Z,48.60
2019-06-01T17:07:52.230Z,48.60
2019-06-01T17:10:26.431Z,48.70
2019-06-01T17:12:59.774Z,49.00
2019-06-01T17:15:31.290Z,49.30
2019-06-01T17:18:06.629Z,49.40
2019-06-01T17:20:47.588Z,49.50
2019-06-01T17:23:28.611Z,49.60
2019-06-01T17:25:53.222Z,49.70
2019-06-01T17:28:25.546Z,50.00
2019-06-01T17:30:58.360Z,50.40
2019-06-01T17:33:30.176Z,51.40
2019-06-01T17:36:02.791Z,51.00
2019-06-01T17:38:34.904Z,51.40
2019-06-01T17:41:06.818Z,51.70
2019-06-01T17:43:38.922Z,52.00
2019-06-01T17:46:12.046Z,52.40
2019-06-01T17:48:44.621Z,52.50
2019-06-01T17:51:16.746Z,52.50
2019-06-01T17:53:48.574Z,52.50
2019-06-01T17:56:20.911Z,52.50
2019-06-01T17:58:52.648Z,52.90
2019-06-01T18:01:25.011Z,53.10
2019-06-01T18:03:57.755Z,53.30
2019-06-01T18:06:29.666Z,53.40
2019-06-01T18:09:01.945Z,53.60
2019-06-01T18:11:33.992Z,53.70
2019-06-01T18:14:08.221Z,54.00
2019-06-01T18:16:40.326Z,54.20
2019-06-01T18:19:12.507Z,54.60
2019-06-01T18:21:44.566Z,54.70
2019-06-01T18:24:16.483Z,55.00
2019-06-01T18:26:48.292Z,55.30
2019-06-01T18:29:20.486Z,55.50
2019-06-01T18:31:52.505Z,55.80
2019-06-01T18:34:24.618Z,56.10
2019-06-01T18:36:56.588Z,56.60
2019-06-01T18:39:28.634Z,56.70
2019-06-01T18:42:00.801Z,56.80
2019-06-01T18:44:32.734Z,57.00
2019-06-01T18:47:05.639Z,57.20
2019-06-01T18:49:37.699Z,57.40
2019-06-01T18:52:10.644Z,57.30
2019-06-01T18:54:42.765Z,57.30
2019-06-01T18:57:20.474Z,57.40
2019-06-01T18:59:48.369Z,57.80
2019-06-01T19:02:20.332Z,57.80
2019-06-01T19:04:52.384Z,58.10
2019-06-01T19:07:24.538Z,58.50
2019-06-01T19:09:56.396Z,58.50
2019-06-01T19:12:28.126Z,58.70
2019-06-01T19:15:00.101Z,58.90
2019-06-01T19:17:32.133Z,59.20
2019-06-01T19:20:03.994Z,59.30
2019-06-01T19:22:35.826Z,59.30
2019-06-01T19:25:08.714Z,59.20
2019-06-01T19:27:40.867Z,59.60
2019-06-01T19:30:13.414Z,59.70
2019-06-01T19:32:45.327Z,60.00
2019-06-01T19:35:17.535Z,60.30
2019-06-01T19:37:49.594Z,60.50
2019-06-01T19:40:24.359Z,60.90
2019-06-01T19:42:56.259Z,61.00
2019-06-01T19:45:29.605Z,61.70
2019-06-01T19:48:01.856Z,62.10
2019-06-01T19:50:33.712Z,61.90
2019-06-01T19:53:06.188Z,62.60
2019-06-01T19:55:38.472Z,62.90
2019-06-01T19:58:10.198Z,63.20
2019-06-01T20:00:42.309Z,63.30
2019-06-01T20:03:14.797Z,63.60
2019-06-01T20:05:47.638Z,64.00
2019-06-01T20:08:19.719Z,64.20
2019-06-01T20:10:51.403Z,64.90
2019-06-01T20:13:23.389Z,65.20
2019-06-01T20:15:55.702Z,65.80
2019-06-01T20:18:27.584Z,66.20
2019-06-01T20:21:00.317Z,66.50
2019-06-01T20:23:32.092Z,67.00
2019-06-01T20:26:03.911Z,67.20
2019-06-01T20:28:35.815Z,67.70
2019-06-01T20:31:07.489Z,67.90
2019-06-01T20:33:39.685Z,68.20
2019-06-01T20:36:12.103Z,68.70
2019-06-01T20:38:44.404Z,69.20
2019-06-01T20:41:16.886Z,69.50
2019-06-01T20:43:48.739Z,70.00
2019-06-01T20:46:20.914Z,70.60
2019-06-01T20:48:53.389Z,71.00
2019-06-01T20:51:27.684Z,71.50
2019-06-01T20:53:59.402Z,72.00
2019-06-01T20:56:31.110Z,72.50
2019-06-01T20:59:03.034Z,72.80
2019-06-01T21:01:34.809Z,73.10
2019-06-01T21:04:06.809Z,73.60
2019-06-01T21:06:38.834Z,74.10
2019-06-01T21:09:11.166Z,74.50
2019-06-01T21:11:43.072Z,75.00
2019-06-01T21:14:15.924Z,75.50
2019-06-01T21:16:47.666Z,76.00
2019-06-01T21:19:20.131Z,76.40
2019-06-01T21:21:52.430Z,76.80
2019-06-01T21:24:25.224Z,77.10
2019-06-01T21:26:57.334Z,77.60
2019-06-01T21:29:29.187Z,77.70
2019-06-01T21:32:01.488Z,78.10
2019-06-01T21:34:33.399Z,78.30
2019-06-01T21:37:05.272Z,78.60
2019-06-01T21:39:37.252Z,78.80
2019-06-01T21:42:09.531Z,79.00
2019-06-01T21:44:41.543Z,79.10
2019-06-01T21:47:13.544Z,79.30
2019-06-01T21:49:45.510Z,79.70
2019-06-01T21:52:17.710Z,80.10
2019-06-01T21:54:51.022Z,80.40
2019-06-01T21:57:22.726Z,80.60
2019-06-01T21:59:54.532Z,81.00
2019-06-01T22:02:27.186Z,81.20
2019-06-01T22:04:59.330Z,81.30
2019-06-01T22:07:31.130Z,81.50
2019-06-01T22:10:03.227Z,81.90
2019-06-01T22:12:34.941Z,81.90
2019-06-01T22:15:06.981Z,81.90
2019-06-01T22:17:38.862Z,82.00
2019-06-01T22:20:11.675Z,82.10
2019-06-01T22:22:43.402Z,82.50
2019-06-01T22:25:15.224Z,82.50
2019-06-01T22:27:51.973Z,82.50
2019-06-01T22:30:24.790Z,82.70
2019-06-01T22:32:56.446Z,82.80
2019-06-01T22:35:28.829Z,82.80
2019-06-01T22:38:00.736Z,82.80
2019-06-01T22:40:32.632Z,83.00
2019-06-01T22:43:04.430Z,83.20
2019-06-01T22:45:36.460Z,83.60
2019-06-01T22:48:08.616Z,83.90
2019-06-01T22:50:40.412Z,84.30
2019-06-01T22:53:12.512Z,84.60
2019-06-01T22:55:44.698Z,84.90
2019-06-01T22:58:16.649Z,85.00
2019-06-01T23:00:48.384Z,85.20
2019-06-01T23:03:20.107Z,85.50
2019-06-01T23:05:52.646Z,85.50
2019-06-01T23:08:25.612Z,85.50
2019-06-01T23:10:57.817Z,85.60
2019-06-01T23:13:30.340Z,85.30
2019-06-01T23:16:02.407Z,85.30
2019-06-01T23:18:34.394Z,85.50
2019-06-01T23:21:06.283Z,85.90
2019-06-01T23:23:38.146Z,86.30
2019-06-01T23:26:09.814Z,86.50
2019-06-01T23:28:41.618Z,87.50
2019-06-01T23:31:13.696Z,87.10
2019-06-01T23:33:45.488Z,87.60
2019-06-01T23:36:17.287Z,87.70
2019-06-01T23:38:49.360Z,87.60
2019-06-01T23:41:22.414Z,87.70
2019-06-01T23:44:10.334Z,88.00
2019-06-01T23:46:27.565Z,88.10
2019-06-01T23:48:59.340Z,88.50
2019-06-01T23:51:31.907Z,88.60
2019-06-01T23:54:03.954Z,88.70
2019-06-01T23:56:36.097Z,88.60
2019-06-01T23:59:08.013Z,88.40
